sensor_id;sensor_type;location;lat;lon;timestamp;pressure;altitude;pressure_sealevel;temperature;humidity
19236;BME280;9752;54.270;12.470;2023-08-12T00:03:17;102575.81;;;15.37;100.00
19236;BME280;9752;54.270;12.470;2023-08-12T00:08:20;102569.88;;;15.40;100.00
19236;BME280;9752;54.270;12.470;2023-08-12T00:13:22;102570.41;;;15.48;100.00
19236;BME280;9752;54.270;12.470;2023-08-12T00:18:24;102558.25;;;15.48;100.00
19236;BME280;9752;54.270;12.470;2023-08-12T00:23:27;102542.06;;;15.54;100.00
19236;BME280;9752;54.270;12.470;2023-08-12T00:28:30;102516.59;;;15.51;100.00
19236;BME280;9752;54.270;12.470;2023-08-12T00:33:31;102509.47;;;15.49;100.00
19236;BME280;9752;54.270;12.470;2023-08-12T00:38:34;102497.78;;;15.43;100.00
19236;BME280;9752;54.270;12.470;2023-08-12T00:43:36;102471.72;;;15.32;100.00
19236;BME280;9752;54.270;12.470;2023-08-12T00:48:38;102463.13;;;15.21;100.00
19236;BME280;9752;54.270;12.470;2023-08-12T00:53:42;102462.31;;;15.09;100.00
19236;BME280;9752;54.270;12.470;2023-08-12T00:58:44;102455.75;;;15.02;100.00
19236;BME280;9752;54.270;12.470;2023-08-12T01:03:46;102448.50;;;14.98;100.00
19236;BME280;9752;54.270;12.470;2023-08-12T01:08:50;102459.31;;;14.91;100.00
19236;BME280;9752;54.270;12.470;2023-08-12T01:13:58;102456.69;;;14.91;100.00
19236;BME280;9752;54.270;12.470;2023-08-12T01:19:01;102450.09;;;14.96;100.00
19236;BME280;9752;54.270;12.470;2023-08-12T01:24:05;102459.75;;;14.97;100.00
19236;BME280;9752;54.270;12.470;2023-08-12T01:29:07;102456.94;;;14.94;100.00
19236;BME280;9752;54.270;12.470;2023-08-12T01:34:12;102450.34;;;14.87;100.00
19236;BME280;9752;54.270;12.470;2023-08-12T01:39:19;102447.31;;;14.81;100.00
19236;BME280;9752;54.270;12.470;2023-08-12T01:44:21;102448.44;;;14.84;100.00
19236;BME280;9752;54.270;12.470;2023-08-12T01:49:24;102455.38;;;14.84;100.00
19236;BME280;9752;54.270;12.470;2023-08-12T01:54:27;102452.06;;;14.87;100.00
19236;BME280;9752;54.270;12.470;2023-08-12T01:59:33;102452.97;;;14.87;100.00
19236;BME280;9752;54.270;12.470;2023-08-12T02:04:35;102456.09;;;14.95;100.00
19236;BME280;9752;54.270;12.470;2023-08-12T02:09:39;102445.78;;;14.96;100.00
19236;BME280;9752;54.270;12.470;2023-08-12T02:14:41;102441.47;;;14.97;100.00
19236;BME280;9752;54.270;12.470;2023-08-12T02:19:42;102440.53;;;14.96;100.00
19236;BME280;9752;54.270;12.470;2023-08-12T02:24:46;102431.91;;;14.97;100.00
19236;BME280;9752;54.270;12.470;2023-08-12T02:29:48;102423.84;;;14.94;100.00
19236;BME280;9752;54.270;12.470;2023-08-12T02:34:50;102414.22;;;14.93;100.00
19236;BME280;9752;54.270;12.470;2023-08-12T02:39:53;102397.63;;;14.93;100.00
19236;BME280;9752;54.270;12.470;2023-08-12T02:44:55;102395.22;;;14.96;100.00
19236;BME280;9752;54.270;12.470;2023-08-12T02:49:57;102391.00;;;14.98;100.00
19236;BME280;9752;54.270;12.470;2023-08-12T02:55:00;102370.50;;;15.04;100.00
19236;BME280;9752;54.270;12.470;2023-08-12T03:00:02;102364.13;;;15.12;100.00
19236;BME280;9752;54.270;12.470;2023-08-12T03:05:06;102353.22;;;15.19;100.00
19236;BME280;9752;54.270;12.470;2023-08-12T03:10:10;102342.38;;;15.27;100.00
19236;BME280;9752;54.270;12.470;2023-08-12T03:15:12;102318.06;;;15.28;100.00
19236;BME280;9752;54.270;12.470;2023-08-12T03:20:14;102304.28;;;15.30;100.00
19236;BME280;9752;54.270;12.470;2023-08-12T03:25:17;102280.06;;;15.33;100.00
19236;BME280;9752;54.270;12.470;2023-08-12T03:30:20;102260.75;;;15.31;100.00
19236;BME280;9752;54.270;12.470;2023-08-12T03:35:23;102249.69;;;15.35;100.00
19236;BME280;9752;54.270;12.470;2023-08-12T03:40:26;102234.81;;;15.34;100.00
19236;BME280;9752;54.270;12.470;2023-08-12T03:45:27;102227.97;;;15.36;100.00
19236;BME280;9752;54.270;12.470;2023-08-12T03:50:33;102202.81;;;15.38;100.00
19236;BME280;9752;54.270;12.470;2023-08-12T03:55:36;102191.72;;;15.42;100.00
19236;BME280;9752;54.270;12.470;2023-08-12T04:00:40;102168.69;;;15.50;100.00
19236;BME280;9752;54.270;12.470;2023-08-12T04:05:47;102160.59;;;15.60;100.00
19236;BME280;9752;54.270;12.470;2023-08-12T04:10:52;102142.78;;;15.68;100.00
19236;BME280;9752;54.270;12.470;2023-08-12T04:15:53;102130.88;;;15.73;100.00
19236;BME280;9752;54.270;12.470;2023-08-12T04:20:55;102117.38;;;15.80;100.00
19236;BME280;9752;54.270;12.470;2023-08-12T04:25:59;102113.22;;;15.84;100.00
19236;BME280;9752;54.270;12.470;2023-08-12T04:31:06;102103.16;;;15.90;100.00
19236;BME280;9752;54.270;12.470;2023-08-12T04:36:08;102089.78;;;16.00;100.00
19236;BME280;9752;54.270;12.470;2023-08-12T04:41:11;102088.72;;;16.11;100.00
19236;BME280;9752;54.270;12.470;2023-08-12T04:46:13;102077.94;;;16.22;100.00
19236;BME280;9752;54.270;12.470;2023-08-12T04:51:15;102068.75;;;16.28;100.00
19236;BME280;9752;54.270;12.470;2023-08-12T04:56:18;102054.00;;;16.45;100.00
19236;BME280;9752;54.270;12.470;2023-08-12T05:01:20;102047.53;;;16.55;100.00
19236;BME280;9752;54.270;12.470;2023-08-12T05:06:22;102043.75;;;16.81;100.00
19236;BME280;9752;54.270;12.470;2023-08-12T05:11:26;101991.53;;;17.17;100.00
19236;BME280;9752;54.270;12.470;2023-08-12T05:16:28;101984.34;;;17.47;100.00
19236;BME280;9752;54.270;12.470;2023-08-12T05:21:31;101970.47;;;17.84;100.00
19236;BME280;9752;54.270;12.470;2023-08-12T05:26:34;101954.50;;;17.98;100.00
19236;BME280;9752;54.270;12.470;2023-08-12T05:31:36;101948.22;;;18.12;100.00
19236;BME280;9752;54.270;12.470;2023-08-12T05:36:38;101925.63;;;17.98;100.00
19236;BME280;9752;54.270;12.470;2023-08-12T05:41:41;101911.94;;;17.85;100.00
19236;BME280;9752;54.270;12.470;2023-08-12T05:46:43;101910.94;;;17.83;100.00
19236;BME280;9752;54.270;12.470;2023-08-12T05:51:45;101914.16;;;17.78;100.00
19236;BME280;9752;54.270;12.470;2023-08-12T05:56:48;101919.69;;;18.02;100.00
19236;BME280;9752;54.270;12.470;2023-08-12T06:01:50;101911.13;;;18.24;100.00
19236;BME280;9752;54.270;12.470;2023-08-12T06:06:52;101911.34;;;18.48;100.00
19236;BME280;9752;54.270;12.470;2023-08-12T06:11:55;101905.25;;;18.68;100.00
19236;BME280;9752;54.270;12.470;2023-08-12T06:16:56;101894.47;;;18.82;100.00
19236;BME280;9752;54.270;12.470;2023-08-12T06:21:58;101886.53;;;19.21;100.00
19236;BME280;9752;54.270;12.470;2023-08-12T06:27:01;101878.72;;;19.22;100.00
19236;BME280;9752;54.270;12.470;2023-08-12T06:32:03;101864.78;;;19.25;100.00
19236;BME280;9752;54.270;12.470;2023-08-12T06:37:04;101855.59;;;19.36;100.00
19236;BME280;9752;54.270;12.470;2023-08-12T06:42:07;101857.91;;;19.49;100.00
19236;BME280;9752;54.270;12.470;2023-08-12T06:47:09;101851.22;;;19.79;100.00
19236;BME280;9752;54.270;12.470;2023-08-12T06:52:11;101845.56;;;19.69;100.00
19236;BME280;9752;54.270;12.470;2023-08-12T06:57:14;101841.59;;;19.79;100.00
19236;BME280;9752;54.270;12.470;2023-08-12T07:02:15;101841.94;;;19.88;100.00
19236;BME280;9752;54.270;12.470;2023-08-12T07:07:17;101832.84;;;20.27;100.00
19236;BME280;9752;54.270;12.470;2023-08-12T07:12:20;101831.13;;;20.52;100.00
19236;BME280;9752;54.270;12.470;2023-08-12T07:17:21;101823.13;;;20.98;100.00
19236;BME280;9752;54.270;12.470;2023-08-12T07:22:23;101828.81;;;21.11;100.00
19236;BME280;9752;54.270;12.470;2023-08-12T07:27:26;101816.81;;;21.46;100.00
19236;BME280;9752;54.270;12.470;2023-08-12T07:32:28;101825.72;;;21.50;100.00
19236;BME280;9752;54.270;12.470;2023-08-12T07:37:29;101824.97;;;21.54;100.00
19236;BME280;9752;54.270;12.470;2023-08-12T07:42:32;101821.22;;;21.76;100.00
19236;BME280;9752;54.270;12.470;2023-08-12T07:47:34;101810.81;;;21.52;100.00
19236;BME280;9752;54.270;12.470;2023-08-12T07:52:36;101810.25;;;22.21;100.00
19236;BME280;9752;54.270;12.470;2023-08-12T07:57:39;101787.88;;;22.72;100.00
19236;BME280;9752;54.270;12.470;2023-08-12T08:02:40;101775.78;;;23.15;100.00
19236;BME280;9752;54.270;12.470;2023-08-12T08:07:42;101803.81;;;23.45;100.00
19236;BME280;9752;54.270;12.470;2023-08-12T08:12:45;101792.50;;;23.14;100.00
19236;BME280;9752;54.270;12.470;2023-08-12T08:17:46;101781.34;;;22.92;100.00
19236;BME280;9752;54.270;12.470;2023-08-12T08:22:48;101787.50;;;23.26;100.00
19236;BME280;9752;54.270;12.470;2023-08-12T08:27:53;101780.41;;;23.63;100.00
19236;BME280;9752;54.270;12.470;2023-08-12T08:32:54;101761.25;;;23.76;100.00
19236;BME280;9752;54.270;12.470;2023-08-12T08:37:56;101764.94;;;24.26;100.00
19236;BME280;9752;54.270;12.470;2023-08-12T08:43:02;101753.13;;;24.08;100.00
19236;BME280;9752;54.270;12.470;2023-08-12T08:48:05;101750.16;;;23.93;100.00
19236;BME280;9752;54.270;12.470;2023-08-12T08:53:09;101752.69;;;24.78;100.00
19236;BME280;9752;54.270;12.470;2023-08-12T08:58:12;101737.50;;;25.90;100.00
19236;BME280;9752;54.270;12.470;2023-08-12T09:03:14;101728.22;;;26.30;100.00
19236;BME280;9752;54.270;12.470;2023-08-12T09:08:16;101726.38;;;26.22;100.00
19236;BME280;9752;54.270;12.470;2023-08-12T09:13:19;101725.31;;;26.07;100.00
19236;BME280;9752;54.270;12.470;2023-08-12T09:18:21;101725.38;;;26.10;100.00
19236;BME280;9752;54.270;12.470;2023-08-12T09:23:26;101712.69;;;25.88;100.00
19236;BME280;9752;54.270;12.470;2023-08-12T09:28:29;101706.69;;;26.06;100.00
19236;BME280;9752;54.270;12.470;2023-08-12T09:33:30;101709.31;;;26.01;100.00
19236;BME280;9752;54.270;12.470;2023-08-12T09:38:32;101695.38;;;26.24;100.00
19236;BME280;9752;54.270;12.470;2023-08-12T09:43:40;101692.78;;;26.33;100.00
19236;BME280;9752;54.270;12.470;2023-08-12T09:48:42;101685.31;;;26.88;100.00
19236;BME280;9752;54.270;12.470;2023-08-12T09:53:44;101668.44;;;26.86;100.00
19236;BME280;9752;54.270;12.470;2023-08-12T09:58:49;101665.22;;;27.46;100.00
19236;BME280;9752;54.270;12.470;2023-08-12T10:03:51;101651.94;;;27.55;100.00
19236;BME280;9752;54.270;12.470;2023-08-12T10:08:53;101646.75;;;27.94;100.00
19236;BME280;9752;54.270;12.470;2023-08-12T10:13:56;101634.31;;;28.27;100.00
19236;BME280;9752;54.270;12.470;2023-08-12T10:18:59;101624.50;;;28.98;100.00
19236;BME280;9752;54.270;12.470;2023-08-12T10:24:02;101618.31;;;28.77;100.00
19236;BME280;9752;54.270;12.470;2023-08-12T10:29:06;101609.44;;;28.60;100.00
19236;BME280;9752;54.270;12.470;2023-08-12T10:34:18;101607.41;;;29.42;100.00
19236;BME280;9752;54.270;12.470;2023-08-12T10:39:22;101593.97;;;29.61;100.00
19236;BME280;9752;54.270;12.470;2023-08-12T10:44:38;101577.66;;;30.05;100.00
19236;BME280;9752;54.270;12.470;2023-08-12T10:49:42;101578.22;;;30.43;100.00
19236;BME280;9752;54.270;12.470;2023-08-12T10:54:45;101572.97;;;31.16;100.00
19236;BME280;9752;54.270;12.470;2023-08-12T10:59:53;101562.72;;;30.74;100.00
19236;BME280;9752;54.270;12.470;2023-08-12T11:04:57;101572.22;;;31.04;100.00
19236;BME280;9752;54.270;12.470;2023-08-12T11:10:03;101555.41;;;31.58;100.00
19236;BME280;9752;54.270;12.470;2023-08-12T11:15:07;101565.84;;;31.13;100.00
19236;BME280;9752;54.270;12.470;2023-08-12T11:20:10;101553.22;;;30.44;100.00
19236;BME280;9752;54.270;12.470;2023-08-12T11:25:14;101548.28;;;30.86;100.00
19236;BME280;9752;54.270;12.470;2023-08-12T11:30:18;101539.88;;;31.18;100.00
19236;BME280;9752;54.270;12.470;2023-08-12T11:35:22;101546.41;;;30.06;100.00
19236;BME280;9752;54.270;12.470;2023-08-12T11:40:25;101551.41;;;30.49;100.00
19236;BME280;9752;54.270;12.470;2023-08-12T11:45:29;101551.47;;;29.16;100.00
19236;BME280;9752;54.270;12.470;2023-08-12T11:50:31;101534.72;;;28.38;100.00
19236;BME280;9752;54.270;12.470;2023-08-12T11:55:32;101542.72;;;28.45;100.00
19236;BME280;9752;54.270;12.470;2023-08-12T12:00:37;101540.03;;;28.58;100.00
19236;BME280;9752;54.270;12.470;2023-08-12T12:05:39;101518.16;;;29.65;100.00
19236;BME280;9752;54.270;12.470;2023-08-12T12:10:41;101526.97;;;29.85;100.00
19236;BME280;9752;54.270;12.470;2023-08-12T12:15:44;101524.69;;;29.17;100.00
19236;BME280;9752;54.270;12.470;2023-08-12T12:21:03;101530.97;;;29.10;100.00
19236;BME280;9752;54.270;12.470;2023-08-12T12:26:05;101528.28;;;29.10;100.00
19236;BME280;9752;54.270;12.470;2023-08-12T12:31:08;101523.00;;;29.01;100.00
19236;BME280;9752;54.270;12.470;2023-08-12T12:36:11;101524.00;;;28.65;100.00
19236;BME280;9752;54.270;12.470;2023-08-12T12:41:13;101506.91;;;29.16;100.00
19236;BME280;9752;54.270;12.470;2023-08-12T12:46:16;101501.31;;;29.56;100.00
19236;BME280;9752;54.270;12.470;2023-08-12T12:51:18;101484.66;;;30.26;100.00
19236;BME280;9752;54.270;12.470;2023-08-12T12:56:20;101476.00;;;30.83;100.00
19236;BME280;9752;54.270;12.470;2023-08-12T13:01:23;101466.84;;;31.02;100.00
19236;BME280;9752;54.270;12.470;2023-08-12T13:06:24;101466.41;;;31.31;100.00
19236;BME280;9752;54.270;12.470;2023-08-12T13:11:28;101473.31;;;30.01;100.00
19236;BME280;9752;54.270;12.470;2023-08-12T13:16:31;101468.44;;;29.42;100.00
19236;BME280;9752;54.270;12.470;2023-08-12T13:21:33;101452.06;;;29.85;100.00
19236;BME280;9752;54.270;12.470;2023-08-12T13:26:35;101450.44;;;29.67;100.00
19236;BME280;9752;54.270;12.470;2023-08-12T13:31:38;101450.50;;;29.59;100.00
19236;BME280;9752;54.270;12.470;2023-08-12T13:36:40;101439.63;;;30.65;100.00
19236;BME280;9752;54.270;12.470;2023-08-12T13:41:42;101442.63;;;30.39;100.00
19236;BME280;9752;54.270;12.470;2023-08-12T13:46:45;101433.16;;;30.05;100.00
19236;BME280;9752;54.270;12.470;2023-08-12T13:51:47;101438.34;;;29.12;100.00
19236;BME280;9752;54.270;12.470;2023-08-12T13:56:48;101439.38;;;28.87;100.00
19236;BME280;9752;54.270;12.470;2023-08-12T14:01:51;101424.97;;;29.17;100.00
19236;BME280;9752;54.270;12.470;2023-08-12T14:06:53;101432.88;;;29.31;100.00
19236;BME280;9752;54.270;12.470;2023-08-12T14:11:55;101420.53;;;29.08;100.00
19236;BME280;9752;54.270;12.470;2023-08-12T14:16:58;101419.69;;;29.00;100.00
19236;BME280;9752;54.270;12.470;2023-08-12T14:22:00;101419.97;;;28.35;100.00
19236;BME280;9752;54.270;12.470;2023-08-12T14:27:02;101420.03;;;27.23;100.00
19236;BME280;9752;54.270;12.470;2023-08-12T14:32:05;101421.56;;;26.52;100.00
19236;BME280;9752;54.270;12.470;2023-08-12T14:37:07;101415.94;;;25.92;100.00
19236;BME280;9752;54.270;12.470;2023-08-12T14:42:09;101419.31;;;25.77;100.00
19236;BME280;9752;54.270;12.470;2023-08-12T14:47:12;101418.41;;;25.71;100.00
19236;BME280;9752;54.270;12.470;2023-08-12T14:52:15;101414.06;;;25.83;100.00
19236;BME280;9752;54.270;12.470;2023-08-12T14:57:17;101414.84;;;25.71;100.00
19236;BME280;9752;54.270;12.470;2023-08-12T15:02:21;101415.63;;;25.56;100.00
19236;BME280;9752;54.270;12.470;2023-08-12T15:07:23;101406.63;;;25.42;100.00
19236;BME280;9752;54.270;12.470;2023-08-12T15:12:25;101414.16;;;24.99;100.00
19236;BME280;9752;54.270;12.470;2023-08-12T15:17:29;101412.19;;;24.82;100.00
19236;BME280;9752;54.270;12.470;2023-08-12T15:22:31;101419.72;;;24.48;100.00
19236;BME280;9752;54.270;12.470;2023-08-12T15:27:32;101424.88;;;24.36;100.00
19236;BME280;9752;54.270;12.470;2023-08-12T15:32:36;101426.81;;;24.49;100.00
19236;BME280;9752;54.270;12.470;2023-08-12T15:37:38;101433.16;;;24.59;100.00
19236;BME280;9752;54.270;12.470;2023-08-12T15:42:39;101453.19;;;24.39;100.00
19236;BME280;9752;54.270;12.470;2023-08-12T15:47:42;101447.53;;;24.14;100.00
19236;BME280;9752;54.270;12.470;2023-08-12T15:52:44;101434.66;;;25.13;100.00
19236;BME280;9752;54.270;12.470;2023-08-12T15:57:46;101416.41;;;26.79;100.00
19236;BME280;9752;54.270;12.470;2023-08-12T16:02:49;101385.25;;;28.48;100.00
19236;BME280;9752;54.270;12.470;2023-08-12T16:07:50;101375.06;;;29.20;100.00
19236;BME280;9752;54.270;12.470;2023-08-12T16:12:52;101375.69;;;27.51;100.00
19236;BME280;9752;54.270;12.470;2023-08-12T16:17:55;101389.94;;;25.58;100.00
19236;BME280;9752;54.270;12.470;2023-08-12T16:22:57;101387.47;;;24.86;100.00
19236;BME280;9752;54.270;12.470;2023-08-12T16:27:59;101381.91;;;24.62;100.00
19236;BME280;9752;54.270;12.470;2023-08-12T16:33:02;101392.34;;;24.49;100.00
19236;BME280;9752;54.270;12.470;2023-08-12T16:38:04;101394.09;;;24.50;100.00
19236;BME280;9752;54.270;12.470;2023-08-12T16:43:06;101398.94;;;24.16;100.00
19236;BME280;9752;54.270;12.470;2023-08-12T16:48:09;101398.50;;;23.86;100.00
19236;BME280;9752;54.270;12.470;2023-08-12T16:53:11;101397.38;;;23.73;100.00
19236;BME280;9752;54.270;12.470;2023-08-12T16:58:12;101396.44;;;23.69;100.00
19236;BME280;9752;54.270;12.470;2023-08-12T17:03:15;101394.59;;;23.62;100.00
19236;BME280;9752;54.270;12.470;2023-08-12T17:08:17;101381.84;;;23.38;100.00
19236;BME280;9752;54.270;12.470;2023-08-12T17:13:19;101385.03;;;23.20;100.00
19236;BME280;9752;54.270;12.470;2023-08-12T17:18:22;101382.19;;;23.08;100.00
19236;BME280;9752;54.270;12.470;2023-08-12T17:23:24;101384.75;;;23.03;100.00
19236;BME280;9752;54.270;12.470;2023-08-12T17:28:26;101374.91;;;22.97;100.00
19236;BME280;9752;54.270;12.470;2023-08-12T17:33:29;101382.69;;;22.88;100.00
19236;BME280;9752;54.270;12.470;2023-08-12T17:38:30;101389.50;;;22.77;100.00
19236;BME280;9752;54.270;12.470;2023-08-12T17:43:32;101399.03;;;22.67;100.00
19236;BME280;9752;54.270;12.470;2023-08-12T17:48:35;101406.84;;;22.63;100.00
19236;BME280;9752;54.270;12.470;2023-08-12T17:53:37;101396.22;;;22.59;100.00
19236;BME280;9752;54.270;12.470;2023-08-12T17:58:39;101413.66;;;22.51;100.00
19236;BME280;9752;54.270;12.470;2023-08-12T18:03:42;101421.19;;;22.31;100.00
19236;BME280;9752;54.270;12.470;2023-08-12T18:08:43;101433.09;;;22.15;100.00
19236;BME280;9752;54.270;12.470;2023-08-12T18:13:45;101439.56;;;21.90;100.00
19236;BME280;9752;54.270;12.470;2023-08-12T18:18:48;101458.56;;;21.75;100.00
19236;BME280;9752;54.270;12.470;2023-08-12T18:23:50;101481.25;;;21.67;100.00
19236;BME280;9752;54.270;12.470;2023-08-12T18:28:51;101475.56;;;21.52;100.00
19236;BME280;9752;54.270;12.470;2023-08-12T18:33:54;101503.59;;;21.47;100.00
19236;BME280;9752;54.270;12.470;2023-08-12T18:38:56;101518.25;;;21.37;100.00
19236;BME280;9752;54.270;12.470;2023-08-12T18:43:58;101546.56;;;21.12;100.00
19236;BME280;9752;54.270;12.470;2023-08-12T18:49:01;101580.25;;;20.92;100.00
19236;BME280;9752;54.270;12.470;2023-08-12T18:54:03;101596.94;;;20.62;100.00
19236;BME280;9752;54.270;12.470;2023-08-12T18:59:05;101718.59;;;20.49;100.00
19236;BME280;9752;54.270;12.470;2023-08-12T19:04:08;101752.94;;;20.76;100.00
19236;BME280;9752;54.270;12.470;2023-08-12T19:09:13;101781.13;;;20.29;100.00
19236;BME280;9752;54.270;12.470;2023-08-12T19:14:16;101822.31;;;20.27;100.00
19236;BME280;9752;54.270;12.470;2023-08-12T19:19:19;101856.50;;;20.25;100.00
19236;BME280;9752;54.270;12.470;2023-08-12T19:24:21;101879.09;;;20.19;100.00
19236;BME280;9752;54.270;12.470;2023-08-12T19:29:23;101895.88;;;19.98;100.00
19236;BME280;9752;54.270;12.470;2023-08-12T19:34:26;101918.63;;;19.96;100.00
19236;BME280;9752;54.270;12.470;2023-08-12T19:39:27;101943.16;;;19.74;100.00
19236;BME280;9752;54.270;12.470;2023-08-12T19:44:29;101939.94;;;19.39;100.00
19236;BME280;9752;54.270;12.470;2023-08-12T19:49:33;101940.25;;;19.06;100.00
19236;BME280;9752;54.270;12.470;2023-08-12T19:54:35;101958.31;;;18.79;100.00
19236;BME280;9752;54.270;12.470;2023-08-12T19:59:36;101970.47;;;18.58;100.00
19236;BME280;9752;54.270;12.470;2023-08-12T20:04:40;101994.16;;;18.40;100.00
19236;BME280;9752;54.270;12.470;2023-08-12T20:09:41;102012.66;;;18.23;100.00
19236;BME280;9752;54.270;12.470;2023-08-12T20:14:43;102026.97;;;18.12;100.00
19236;BME280;9752;54.270;12.470;2023-08-12T20:19:46;102048.84;;;17.94;100.00
19236;BME280;9752;54.270;12.470;2023-08-12T20:24:48;102050.84;;;17.82;100.00
19236;BME280;9752;54.270;12.470;2023-08-12T20:29:50;102071.13;;;17.68;100.00
19236;BME280;9752;54.270;12.470;2023-08-12T20:34:53;102092.78;;;17.64;100.00
19236;BME280;9752;54.270;12.470;2023-08-12T20:39:55;102127.56;;;17.93;100.00
19236;BME280;9752;54.270;12.470;2023-08-12T20:44:57;102144.38;;;18.14;100.00
19236;BME280;9752;54.270;12.470;2023-08-12T20:50:00;102164.81;;;18.20;100.00
19236;BME280;9752;54.270;12.470;2023-08-12T20:55:02;102191.38;;;18.26;100.00
19236;BME280;9752;54.270;12.470;2023-08-12T21:00:05;102226.28;;;18.58;100.00
19236;BME280;9752;54.270;12.470;2023-08-12T21:05:09;102436.19;;;18.85;100.00
19236;BME280;9752;54.270;12.470;2023-08-12T21:10:12;102464.78;;;18.95;100.00
19236;BME280;9752;54.270;12.470;2023-08-12T21:15:14;102481.97;;;19.05;100.00
19236;BME280;9752;54.270;12.470;2023-08-12T21:20:17;102508.81;;;19.16;100.00
19236;BME280;9752;54.270;12.470;2023-08-12T21:25:19;102518.75;;;19.21;100.00
19236;BME280;9752;54.270;12.470;2023-08-12T21:30:21;102532.16;;;19.26;100.00
19236;BME280;9752;54.270;12.470;2023-08-12T21:35:24;102539.13;;;19.25;100.00
19236;BME280;9752;54.270;12.470;2023-08-12T21:40:26;102566.91;;;19.37;100.00
19236;BME280;9752;54.270;12.470;2023-08-12T21:45:28;102592.31;;;19.53;100.00
19236;BME280;9752;54.270;12.470;2023-08-12T21:50:33;102627.84;;;19.61;100.00
19236;BME280;9752;54.270;12.470;2023-08-12T21:55:36;102665.34;;;19.57;100.00
19236;BME280;9752;54.270;12.470;2023-08-12T22:00:38;102737.75;;;19.48;100.00
19236;BME280;9752;54.270;12.470;2023-08-12T22:05:41;102701.25;;;19.23;100.00
19236;BME280;9752;54.270;12.470;2023-08-12T22:10:44;102647.16;;;18.96;100.00
19236;BME280;9752;54.270;12.470;2023-08-12T22:15:45;102603.41;;;18.66;100.00
19236;BME280;9752;54.270;12.470;2023-08-12T22:20:50;102562.31;;;18.52;100.00
19236;BME280;9752;54.270;12.470;2023-08-12T22:25:51;102552.94;;;18.41;100.00
19236;BME280;9752;54.270;12.470;2023-08-12T22:30:53;102558.41;;;18.29;100.00
19236;BME280;9752;54.270;12.470;2023-08-12T22:35:56;102565.56;;;18.17;100.00
19236;BME280;9752;54.270;12.470;2023-08-12T22:40:58;102587.13;;;18.11;100.00
19236;BME280;9752;54.270;12.470;2023-08-12T22:46:00;102604.31;;;18.06;100.00
19236;BME280;9752;54.270;12.470;2023-08-12T22:51:03;102623.69;;;18.08;100.00
19236;BME280;9752;54.270;12.470;2023-08-12T22:56:05;102638.75;;;18.10;100.00
19236;BME280;9752;54.270;12.470;2023-08-12T23:01:06;102653.41;;;18.07;100.00
19236;BME280;9752;54.270;12.470;2023-08-12T23:06:10;102644.16;;;18.13;100.00
19236;BME280;9752;54.270;12.470;2023-08-12T23:11:11;102645.63;;;18.08;100.00
19236;BME280;9752;54.270;12.470;2023-08-12T23:16:13;102646.72;;;18.12;100.00
19236;BME280;9752;54.270;12.470;2023-08-12T23:21:16;102643.72;;;18.06;100.00
19236;BME280;9752;54.270;12.470;2023-08-12T23:26:18;102645.44;;;18.05;100.00
19236;BME280;9752;54.270;12.470;2023-08-12T23:31:20;102644.53;;;18.05;100.00
19236;BME280;9752;54.270;12.470;2023-08-12T23:36:23;102637.41;;;18.02;100.00
19236;BME280;9752;54.270;12.470;2023-08-12T23:41:24;102635.03;;;17.92;100.00
19236;BME280;9752;54.270;12.470;2023-08-12T23:46:26;102644.78;;;17.80;100.00
19236;BME280;9752;54.270;12.470;2023-08-12T23:51:29;102649.78;;;17.62;100.00
19236;BME280;9752;54.270;12.470;2023-08-12T23:56:31;102667.31;;;17.48;100.00
